Terminal Aerodrome Forecast
Issued by NWS Twin Cities, MN

Home | Current Version | Previous Version | Text Only | Print | Product List | Glossary Off
Versions: 1 2 3 4 5 6 7 8 9 10 11 12 13 14 15 16 17 18 19 20 21 22 23 24

000
FTUS43 KMPX 212044 AAA
TAFMSP
TAF AMD
KMSP 212044Z 2121/2224 16013KT P6SM SKC
     FM220200 16008KT P6SM SKC
     FM220700 26006KT P6SM SCT120
     FM221000 33005KT P6SM SCT150
     FM221900 VRB04KT 5SM -SHRA BR OVC070=

USA.gov is the U.S. government's official web portal to all federal, state and local government web resources and services.